Date,TemperatureHighF,TemperatureAvgF,TemperatureLowF,DewpointHighF,DewpointAvgF,DewpointLowF,HumidityHigh,HumidityAvg,HumidityLow,PressureMaxIn,PressureMinIn,WindSpeedMaxMPH,WindSpeedAvgMPH,GustSpeedMaxMPH,PrecipitationSumIn
2014-5-1,85.7,68.4,54.3,54.0,48.4,38.9,81,53,20,30.11,29.88,11,2,14,0.00
2014-5-2,69.5,62.3,54.7,55.0,50.9,42.8,84,67,39,30.00,29.86,16,5,21,0.01
2014-5-3,59.0,53.4,50.6,50.5,48.1,45.4,97,83,62,29.89,29.70,17,6,27,0.28
2014-5-4,57.7,53.1,49.7,52.1,49.8,48.0,95,89,74,29.82,29.69,16,6,29,0.03
2014-5-5,59.0,53.8,50.7,51.5,49.5,48.2,94,86,71,29.99,29.82,16,5,20,0.01
2014-5-6,61.4,54.5,50.0,51.1,47.6,44.5,94,78,56,30.01,29.94,9,2,12,0.00
2014-5-7,65.4,54.8,45.3,50.4,46.4,43.4,95,75,48,30.01,29.83,9,2,16,0.00
2014-5-8,56.3,53.2,51.1,53.7,48.6,43.9,97,85,66,29.85,29.59,25,3,29,0.05
2014-5-9,55.4,51.8,48.5,48.2,46.0,43.2,89,81,65,29.96,29.68,24,10,34,0.01
2014-5-10,56.4,51.3,46.4,50.4,46.8,44.7,96,85,66,30.23,29.97,11,2,12,0.01
2014-5-11,51.8,49.1,46.2,49.2,47.2,44.8,96,93,89,30.28,30.24,2,0,4,0.00
2014-5-17,65.7,62.4,56.9,51.8,50.1,46.7,79,65,55,29.91,29.83,10,2,16,0.00
2014-5-18,56.7,53.8,51.7,51.4,50.3,49.4,94,88,79,29.83,29.80,3,0,4,0.00
2014-5-22,75.1,69.2,62.6,58.3,56.5,55.0,82,65,53,30.00,29.97,9,1,16,0.00
2014-5-23,68.3,61.6,56.9,59.2,56.9,53.8,95,85,71,30.09,29.92,17,4,26,0.01
2014-5-24,64.4,59.1,55.8,54.2,52.3,50.6,86,78,66,30.16,30.08,9,2,13,0.00
2014-5-25,59.8,56.5,54.4,54.5,51.9,49.3,94,85,69,30.10,29.96,10,1,13,0.03
2014-5-26,64.0,58.3,53.9,53.5,49.8,44.4,96,75,55,30.14,29.96,20,5,25,0.01
2014-5-27,65.4,58.0,52.2,49.2,46.3,42.5,83,67,44,30.13,30.03,12,2,14,0.00
2014-5-28,64.2,57.3,52.9,51.5,48.5,43.2,89,73,49,30.10,30.04,17,4,22,0.00
2014-5-29,63.1,56.8,53.5,51.0,48.5,46.0,84,75,57,30.19,30.11,13,4,17,0.00
2014-5-30,67.4,58.6,49.1,51.3,48.6,45.7,90,71,47,30.14,29.94,15,3,18,0.00
2014-5-31,74.0,62.5,51.3,54.3,50.7,48.4,92,68,43,30.04,29.97,11,2,14,0.00